sensor_id;sensor_type;location;lat;lon;timestamp;P1;durP1;ratioP1;P2;durP2;ratioP2
70228;SDS011;57617;51.988;5.854;2022-10-30T00:01:18;21.90;;;8.80;;
70228;SDS011;57617;51.988;5.854;2022-10-30T00:03:44;25.65;;;9.60;;
70228;SDS011;57617;51.988;5.854;2022-10-30T00:06:09;22.42;;;8.68;;
70228;SDS011;57617;51.988;5.854;2022-10-30T00:08:34;29.55;;;9.55;;
70228;SDS011;57617;51.988;5.854;2022-10-30T00:11:03;24.90;;;9.57;;
70228;SDS011;57617;51.988;5.854;2022-10-30T00:13:30;26.85;;;9.05;;
70228;SDS011;57617;51.988;5.854;2022-10-30T00:15:55;19.70;;;8.63;;
70228;SDS011;57617;51.988;5.854;2022-10-30T00:18:20;22.52;;;8.75;;
70228;SDS011;57617;51.988;5.854;2022-10-30T00:20:46;23.73;;;9.98;;
70228;SDS011;57617;51.988;5.854;2022-10-30T00:23:12;23.77;;;8.90;;
70228;SDS011;57617;51.988;5.854;2022-10-30T00:25:37;20.88;;;8.65;;
70228;SDS011;57617;51.988;5.854;2022-10-30T00:28:03;22.25;;;9.07;;
70228;SDS011;57617;51.988;5.854;2022-10-30T00:30:30;26.55;;;10.13;;
70228;SDS011;57617;51.988;5.854;2022-10-30T00:32:55;27.17;;;9.18;;
70228;SDS011;57617;51.988;5.854;2022-10-30T00:35:21;24.23;;;9.02;;
70228;SDS011;57617;51.988;5.854;2022-10-30T00:37:46;24.48;;;9.30;;
70228;SDS011;57617;51.988;5.854;2022-10-30T00:40:13;23.70;;;9.55;;
70228;SDS011;57617;51.988;5.854;2022-10-30T00:42:40;20.40;;;9.32;;
70228;SDS011;57617;51.988;5.854;2022-10-30T00:45:05;20.20;;;8.88;;
70228;SDS011;57617;51.988;5.854;2022-10-30T00:50:03;20.52;;;9.85;;
70228;SDS011;57617;51.988;5.854;2022-10-30T00:52:33;28.55;;;9.55;;
70228;SDS011;57617;51.988;5.854;2022-10-30T00:55:03;21.83;;;9.50;;
70228;SDS011;57617;51.988;5.854;2022-10-30T00:57:32;24.70;;;9.20;;
70228;SDS011;57617;51.988;5.854;2022-10-30T00:59:59;22.48;;;9.95;;
70228;SDS011;57617;51.988;5.854;2022-10-30T01:02:24;22.35;;;9.45;;
70228;SDS011;57617;51.988;5.854;2022-10-30T01:04:50;23.23;;;9.48;;
70228;SDS011;57617;51.988;5.854;2022-10-30T01:07:18;24.02;;;9.57;;
70228;SDS011;57617;51.988;5.854;2022-10-30T01:09:44;22.45;;;9.70;;
70228;SDS011;57617;51.988;5.854;2022-10-30T01:12:11;26.48;;;9.70;;
70228;SDS011;57617;51.988;5.854;2022-10-30T01:14:38;22.35;;;8.95;;
70228;SDS011;57617;51.988;5.854;2022-10-30T01:19:43;16.95;;;9.27;;
70228;SDS011;57617;51.988;5.854;2022-10-30T01:27:48;26.95;;;9.48;;
70228;SDS011;57617;51.988;5.854;2022-10-30T01:35:51;24.60;;;9.82;;
70228;SDS011;57617;51.988;5.854;2022-10-30T01:38:26;27.77;;;10.88;;
70228;SDS011;57617;51.988;5.854;2022-10-30T01:40:57;24.38;;;10.18;;
70228;SDS011;57617;51.988;5.854;2022-10-30T01:43:22;28.52;;;9.70;;
70228;SDS011;57617;51.988;5.854;2022-10-30T01:48:52;23.08;;;9.90;;
70228;SDS011;57617;51.988;5.854;2022-10-30T01:54:26;24.15;;;9.40;;
70228;SDS011;57617;51.988;5.854;2022-10-30T01:57:02;20.55;;;9.30;;
70228;SDS011;57617;51.988;5.854;2022-10-30T01:59:40;18.42;;;9.52;;
70228;SDS011;57617;51.988;5.854;2022-10-30T02:02:11;20.92;;;9.73;;
70228;SDS011;57617;51.988;5.854;2022-10-30T02:04:37;25.23;;;10.40;;
70228;SDS011;57617;51.988;5.854;2022-10-30T02:07:03;25.08;;;9.93;;
70228;SDS011;57617;51.988;5.854;2022-10-30T02:09:29;20.23;;;9.40;;
70228;SDS011;57617;51.988;5.854;2022-10-30T02:11:55;25.05;;;10.32;;
70228;SDS011;57617;51.988;5.854;2022-10-30T02:14:25;21.23;;;10.15;;
70228;SDS011;57617;51.988;5.854;2022-10-30T02:16:54;26.23;;;9.77;;
70228;SDS011;57617;51.988;5.854;2022-10-30T02:19:22;30.17;;;9.35;;
70228;SDS011;57617;51.988;5.854;2022-10-30T02:21:48;22.25;;;10.20;;
70228;SDS011;57617;51.988;5.854;2022-10-30T02:24:14;25.17;;;10.48;;
70228;SDS011;57617;51.988;5.854;2022-10-30T02:26:39;23.95;;;10.02;;
70228;SDS011;57617;51.988;5.854;2022-10-30T02:29:04;21.95;;;10.07;;
70228;SDS011;57617;51.988;5.854;2022-10-30T02:31:30;23.52;;;10.07;;
70228;SDS011;57617;51.988;5.854;2022-10-30T02:33:55;29.02;;;11.00;;
70228;SDS011;57617;51.988;5.854;2022-10-30T02:36:20;26.65;;;10.02;;
70228;SDS011;57617;51.988;5.854;2022-10-30T02:38:45;26.85;;;10.02;;
70228;SDS011;57617;51.988;5.854;2022-10-30T02:41:11;27.85;;;9.77;;
70228;SDS011;57617;51.988;5.854;2022-10-30T02:43:36;24.77;;;10.35;;
70228;SDS011;57617;51.988;5.854;2022-10-30T02:46:01;28.55;;;10.57;;
70228;SDS011;57617;51.988;5.854;2022-10-30T02:48:28;21.45;;;9.65;;
70228;SDS011;57617;51.988;5.854;2022-10-30T02:50:57;26.63;;;10.30;;
70228;SDS011;57617;51.988;5.854;2022-10-30T02:53:24;22.88;;;9.75;;
70228;SDS011;57617;51.988;5.854;2022-10-30T02:55:49;25.63;;;10.05;;
70228;SDS011;57617;51.988;5.854;2022-10-30T02:58:14;23.40;;;10.60;;
70228;SDS011;57617;51.988;5.854;2022-10-30T03:00:39;22.02;;;9.68;;
70228;SDS011;57617;51.988;5.854;2022-10-30T03:03:04;29.63;;;9.88;;
70228;SDS011;57617;51.988;5.854;2022-10-30T03:05:30;23.95;;;9.98;;
70228;SDS011;57617;51.988;5.854;2022-10-30T03:07:55;24.85;;;10.63;;
70228;SDS011;57617;51.988;5.854;2022-10-30T03:10:20;25.75;;;10.10;;
70228;SDS011;57617;51.988;5.854;2022-10-30T03:12:45;24.02;;;10.38;;
70228;SDS011;57617;51.988;5.854;2022-10-30T03:15:11;27.23;;;10.27;;
70228;SDS011;57617;51.988;5.854;2022-10-30T03:17:36;25.77;;;10.63;;
70228;SDS011;57617;51.988;5.854;2022-10-30T03:20:01;22.70;;;10.27;;
70228;SDS011;57617;51.988;5.854;2022-10-30T03:22:27;21.83;;;10.40;;
70228;SDS011;57617;51.988;5.854;2022-10-30T03:24:52;28.38;;;10.93;;
70228;SDS011;57617;51.988;5.854;2022-10-30T03:27:17;28.65;;;10.27;;
70228;SDS011;57617;51.988;5.854;2022-10-30T03:29:42;25.00;;;10.40;;
70228;SDS011;57617;51.988;5.854;2022-10-30T03:32:08;19.95;;;10.05;;
70228;SDS011;57617;51.988;5.854;2022-10-30T03:34:34;24.10;;;9.77;;
70228;SDS011;57617;51.988;5.854;2022-10-30T03:37:00;24.30;;;9.60;;
70228;SDS011;57617;51.988;5.854;2022-10-30T03:39:25;23.80;;;10.43;;
70228;SDS011;57617;51.988;5.854;2022-10-30T03:41:50;23.27;;;10.35;;
70228;SDS011;57617;51.988;5.854;2022-10-30T03:44:16;24.60;;;11.10;;
70228;SDS011;57617;51.988;5.854;2022-10-30T03:46:41;24.08;;;11.05;;
70228;SDS011;57617;51.988;5.854;2022-10-30T03:49:06;20.83;;;10.38;;
70228;SDS011;57617;51.988;5.854;2022-10-30T03:51:31;26.83;;;11.10;;
70228;SDS011;57617;51.988;5.854;2022-10-30T03:53:57;26.30;;;11.05;;
70228;SDS011;57617;51.988;5.854;2022-10-30T03:56:22;22.30;;;10.68;;
70228;SDS011;57617;51.988;5.854;2022-10-30T03:58:47;27.13;;;10.30;;
70228;SDS011;57617;51.988;5.854;2022-10-30T04:01:13;27.55;;;10.63;;
70228;SDS011;57617;51.988;5.854;2022-10-30T04:03:38;26.00;;;10.73;;
70228;SDS011;57617;51.988;5.854;2022-10-30T04:06:04;24.48;;;10.43;;
70228;SDS011;57617;51.988;5.854;2022-10-30T04:08:30;25.48;;;10.98;;
70228;SDS011;57617;51.988;5.854;2022-10-30T04:10:56;23.35;;;10.48;;
70228;SDS011;57617;51.988;5.854;2022-10-30T04:13:21;28.90;;;11.30;;
70228;SDS011;57617;51.988;5.854;2022-10-30T04:15:47;30.50;;;11.35;;
70228;SDS011;57617;51.988;5.854;2022-10-30T04:18:13;24.98;;;10.98;;
70228;SDS011;57617;51.988;5.854;2022-10-30T04:20:40;23.70;;;11.05;;
70228;SDS011;57617;51.988;5.854;2022-10-30T04:23:06;22.67;;;11.23;;
70228;SDS011;57617;51.988;5.854;2022-10-30T04:25:35;27.92;;;11.05;;
70228;SDS011;57617;51.988;5.854;2022-10-30T04:28:00;28.42;;;11.50;;
70228;SDS011;57617;51.988;5.854;2022-10-30T04:30:26;26.23;;;11.38;;
70228;SDS011;57617;51.988;5.854;2022-10-30T04:32:52;24.48;;;11.10;;
70228;SDS011;57617;51.988;5.854;2022-10-30T04:35:19;21.75;;;10.48;;
70228;SDS011;57617;51.988;5.854;2022-10-30T04:37:56;26.33;;;11.13;;
70228;SDS011;57617;51.988;5.854;2022-10-30T04:40:23;28.77;;;11.57;;
70228;SDS011;57617;51.988;5.854;2022-10-30T04:42:51;31.02;;;11.23;;
70228;SDS011;57617;51.988;5.854;2022-10-30T04:45:17;28.02;;;10.95;;
70228;SDS011;57617;51.988;5.854;2022-10-30T04:47:42;27.05;;;11.20;;
70228;SDS011;57617;51.988;5.854;2022-10-30T04:50:08;20.30;;;10.90;;
70228;SDS011;57617;51.988;5.854;2022-10-30T04:52:34;31.15;;;11.10;;
70228;SDS011;57617;51.988;5.854;2022-10-30T04:55:00;25.95;;;11.00;;
70228;SDS011;57617;51.988;5.854;2022-10-30T04:57:25;24.65;;;11.07;;
70228;SDS011;57617;51.988;5.854;2022-10-30T04:59:51;30.45;;;11.32;;
70228;SDS011;57617;51.988;5.854;2022-10-30T05:02:16;30.85;;;11.60;;
70228;SDS011;57617;51.988;5.854;2022-10-30T05:04:43;27.67;;;10.95;;
70228;SDS011;57617;51.988;5.854;2022-10-30T05:07:08;33.90;;;11.27;;
70228;SDS011;57617;51.988;5.854;2022-10-30T05:09:34;25.55;;;10.82;;
70228;SDS011;57617;51.988;5.854;2022-10-30T05:11:59;22.65;;;11.18;;
70228;SDS011;57617;51.988;5.854;2022-10-30T05:14:27;24.10;;;10.57;;
70228;SDS011;57617;51.988;5.854;2022-10-30T05:16:53;28.13;;;11.48;;
70228;SDS011;57617;51.988;5.854;2022-10-30T05:19:19;25.33;;;10.82;;
70228;SDS011;57617;51.988;5.854;2022-10-30T05:21:44;26.33;;;11.02;;
70228;SDS011;57617;51.988;5.854;2022-10-30T05:24:09;28.05;;;10.75;;
70228;SDS011;57617;51.988;5.854;2022-10-30T05:26:34;25.67;;;11.38;;
70228;SDS011;57617;51.988;5.854;2022-10-30T05:29:00;27.13;;;12.45;;
70228;SDS011;57617;51.988;5.854;2022-10-30T05:31:25;26.33;;;11.05;;
70228;SDS011;57617;51.988;5.854;2022-10-30T05:33:50;31.63;;;11.38;;
70228;SDS011;57617;51.988;5.854;2022-10-30T05:36:15;24.58;;;11.48;;
70228;SDS011;57617;51.988;5.854;2022-10-30T05:38:41;27.35;;;11.85;;
70228;SDS011;57617;51.988;5.854;2022-10-30T05:41:06;31.15;;;11.50;;
70228;SDS011;57617;51.988;5.854;2022-10-30T05:43:31;29.15;;;11.85;;
70228;SDS011;57617;51.988;5.854;2022-10-30T05:45:57;30.80;;;11.27;;
70228;SDS011;57617;51.988;5.854;2022-10-30T05:48:22;24.73;;;11.30;;
70228;SDS011;57617;51.988;5.854;2022-10-30T05:50:47;32.67;;;11.65;;
70228;SDS011;57617;51.988;5.854;2022-10-30T05:53:12;32.90;;;12.15;;
70228;SDS011;57617;51.988;5.854;2022-10-30T05:55:38;28.55;;;11.60;;
70228;SDS011;57617;51.988;5.854;2022-10-30T05:58:04;25.85;;;11.75;;
70228;SDS011;57617;51.988;5.854;2022-10-30T06:00:31;31.20;;;11.75;;
70228;SDS011;57617;51.988;5.854;2022-10-30T06:05:30;27.92;;;11.90;;
70228;SDS011;57617;51.988;5.854;2022-10-30T06:07:57;28.25;;;12.00;;
70228;SDS011;57617;51.988;5.854;2022-10-30T06:10:22;29.48;;;12.57;;
70228;SDS011;57617;51.988;5.854;2022-10-30T06:12:55;24.83;;;11.10;;
70228;SDS011;57617;51.988;5.854;2022-10-30T06:15:22;30.55;;;12.27;;
70228;SDS011;57617;51.988;5.854;2022-10-30T06:17:48;32.67;;;11.90;;
70228;SDS011;57617;51.988;5.854;2022-10-30T06:20:14;23.33;;;11.18;;
70228;SDS011;57617;51.988;5.854;2022-10-30T06:22:40;31.65;;;11.98;;
70228;SDS011;57617;51.988;5.854;2022-10-30T06:25:05;29.60;;;12.35;;
70228;SDS011;57617;51.988;5.854;2022-10-30T06:27:33;21.27;;;12.05;;
70228;SDS011;57617;51.988;5.854;2022-10-30T06:29:59;28.83;;;11.98;;
70228;SDS011;57617;51.988;5.854;2022-10-30T06:32:24;25.95;;;12.15;;
70228;SDS011;57617;51.988;5.854;2022-10-30T06:34:49;24.60;;;11.82;;
70228;SDS011;57617;51.988;5.854;2022-10-30T06:37:14;31.88;;;12.13;;
70228;SDS011;57617;51.988;5.854;2022-10-30T06:39:40;25.00;;;12.15;;
70228;SDS011;57617;51.988;5.854;2022-10-30T06:42:05;28.85;;;11.73;;
70228;SDS011;57617;51.988;5.854;2022-10-30T06:44:30;29.67;;;11.90;;
70228;SDS011;57617;51.988;5.854;2022-10-30T06:46:56;31.38;;;12.43;;
70228;SDS011;57617;51.988;5.854;2022-10-30T06:49:21;24.35;;;11.50;;
70228;SDS011;57617;51.988;5.854;2022-10-30T06:51:46;34.90;;;11.82;;
70228;SDS011;57617;51.988;5.854;2022-10-30T06:54:13;25.27;;;12.15;;
70228;SDS011;57617;51.988;5.854;2022-10-30T06:56:38;31.48;;;11.95;;
70228;SDS011;57617;51.988;5.854;2022-10-30T06:59:04;33.75;;;12.68;;
70228;SDS011;57617;51.988;5.854;2022-10-30T07:01:29;26.73;;;11.50;;
70228;SDS011;57617;51.988;5.854;2022-10-30T07:03:54;30.25;;;11.63;;
70228;SDS011;57617;51.988;5.854;2022-10-30T07:06:20;24.40;;;11.00;;
70228;SDS011;57617;51.988;5.854;2022-10-30T07:08:45;26.65;;;11.48;;
70228;SDS011;57617;51.988;5.854;2022-10-30T07:11:11;25.05;;;11.70;;
70228;SDS011;57617;51.988;5.854;2022-10-30T07:13:36;27.77;;;11.48;;
70228;SDS011;57617;51.988;5.854;2022-10-30T07:16:01;29.10;;;12.07;;
70228;SDS011;57617;51.988;5.854;2022-10-30T07:18:26;33.20;;;12.75;;
70228;SDS011;57617;51.988;5.854;2022-10-30T07:20:54;23.63;;;12.50;;
70228;SDS011;57617;51.988;5.854;2022-10-30T07:23:20;22.70;;;12.00;;
70228;SDS011;57617;51.988;5.854;2022-10-30T07:25:46;21.83;;;11.57;;
70228;SDS011;57617;51.988;5.854;2022-10-30T07:28:11;25.10;;;12.10;;
70228;SDS011;57617;51.988;5.854;2022-10-30T07:30:36;31.77;;;12.45;;
70228;SDS011;57617;51.988;5.854;2022-10-30T07:33:02;29.58;;;12.82;;
70228;SDS011;57617;51.988;5.854;2022-10-30T07:35:30;41.05;;;13.82;;
70228;SDS011;57617;51.988;5.854;2022-10-30T07:38:01;29.95;;;13.02;;
70228;SDS011;57617;51.988;5.854;2022-10-30T07:40:28;27.33;;;12.63;;
70228;SDS011;57617;51.988;5.854;2022-10-30T07:42:57;29.38;;;12.88;;
70228;SDS011;57617;51.988;5.854;2022-10-30T07:45:28;27.30;;;12.75;;
70228;SDS011;57617;51.988;5.854;2022-10-30T07:47:54;35.75;;;12.80;;
70228;SDS011;57617;51.988;5.854;2022-10-30T07:50:21;27.02;;;12.80;;
70228;SDS011;57617;51.988;5.854;2022-10-30T07:52:46;32.45;;;13.57;;
70228;SDS011;57617;51.988;5.854;2022-10-30T07:55:11;37.17;;;13.43;;
70228;SDS011;57617;51.988;5.854;2022-10-30T07:57:38;30.33;;;14.48;;
70228;SDS011;57617;51.988;5.854;2022-10-30T08:00:04;29.25;;;13.30;;
70228;SDS011;57617;51.988;5.854;2022-10-30T08:02:31;32.83;;;13.48;;
70228;SDS011;57617;51.988;5.854;2022-10-30T08:04:57;27.33;;;13.27;;
70228;SDS011;57617;51.988;5.854;2022-10-30T08:07:22;29.00;;;13.13;;
70228;SDS011;57617;51.988;5.854;2022-10-30T08:09:47;28.85;;;13.48;;
70228;SDS011;57617;51.988;5.854;2022-10-30T08:12:13;26.30;;;13.38;;
70228;SDS011;57617;51.988;5.854;2022-10-30T08:14:38;36.88;;;12.68;;
70228;SDS011;57617;51.988;5.854;2022-10-30T08:17:04;31.00;;;14.15;;
70228;SDS011;57617;51.988;5.854;2022-10-30T08:19:31;27.00;;;13.10;;
70228;SDS011;57617;51.988;5.854;2022-10-30T08:21:57;28.08;;;13.48;;
70228;SDS011;57617;51.988;5.854;2022-10-30T08:24:22;31.52;;;13.90;;
70228;SDS011;57617;51.988;5.854;2022-10-30T08:26:50;30.05;;;12.90;;
70228;SDS011;57617;51.988;5.854;2022-10-30T08:29:16;30.35;;;13.77;;
70228;SDS011;57617;51.988;5.854;2022-10-30T08:31:41;31.60;;;13.63;;
70228;SDS011;57617;51.988;5.854;2022-10-30T08:34:06;31.52;;;14.32;;
70228;SDS011;57617;51.988;5.854;2022-10-30T08:36:33;36.85;;;15.68;;
70228;SDS011;57617;51.988;5.854;2022-10-30T08:38:58;38.72;;;14.70;;
70228;SDS011;57617;51.988;5.854;2022-10-30T08:41:24;38.35;;;15.45;;
70228;SDS011;57617;51.988;5.854;2022-10-30T08:43:49;32.65;;;14.20;;
70228;SDS011;57617;51.988;5.854;2022-10-30T08:46:14;30.23;;;14.77;;
70228;SDS011;57617;51.988;5.854;2022-10-30T08:48:39;32.10;;;15.23;;
70228;SDS011;57617;51.988;5.854;2022-10-30T08:51:05;24.20;;;13.70;;
70228;SDS011;57617;51.988;5.854;2022-10-30T08:53:31;31.42;;;14.15;;
70228;SDS011;57617;51.988;5.854;2022-10-30T08:55:56;30.20;;;14.30;;
70228;SDS011;57617;51.988;5.854;2022-10-30T08:58:21;27.98;;;14.52;;
70228;SDS011;57617;51.988;5.854;2022-10-30T09:00:47;30.98;;;16.20;;
70228;SDS011;57617;51.988;5.854;2022-10-30T09:03:12;32.90;;;14.77;;
70228;SDS011;57617;51.988;5.854;2022-10-30T09:05:37;36.58;;;15.27;;
70228;SDS011;57617;51.988;5.854;2022-10-30T09:08:03;31.27;;;14.85;;
70228;SDS011;57617;51.988;5.854;2022-10-30T09:10:28;32.97;;;15.02;;
70228;SDS011;57617;51.988;5.854;2022-10-30T09:12:55;26.67;;;14.35;;
70228;SDS011;57617;51.988;5.854;2022-10-30T09:15:21;31.38;;;13.20;;
70228;SDS011;57617;51.988;5.854;2022-10-30T09:17:46;26.45;;;13.70;;
70228;SDS011;57617;51.988;5.854;2022-10-30T09:20:12;28.00;;;13.68;;
70228;SDS011;57617;51.988;5.854;2022-10-30T09:22:40;30.13;;;13.82;;
70228;SDS011;57617;51.988;5.854;2022-10-30T09:25:06;28.27;;;13.75;;
70228;SDS011;57617;51.988;5.854;2022-10-30T09:27:35;29.25;;;13.10;;
70228;SDS011;57617;51.988;5.854;2022-10-30T09:30:01;33.58;;;13.82;;
70228;SDS011;57617;51.988;5.854;2022-10-30T09:32:27;26.25;;;13.88;;
70228;SDS011;57617;51.988;5.854;2022-10-30T09:34:52;27.75;;;13.38;;
70228;SDS011;57617;51.988;5.854;2022-10-30T09:37:17;28.38;;;13.70;;
70228;SDS011;57617;51.988;5.854;2022-10-30T09:39:43;27.13;;;13.43;;
70228;SDS011;57617;51.988;5.854;2022-10-30T09:47:40;27.88;;;13.05;;
70228;SDS011;57617;51.988;5.854;2022-10-30T09:50:28;23.50;;;12.55;;
70228;SDS011;57617;51.988;5.854;2022-10-30T09:53:21;29.75;;;13.57;;
70228;SDS011;57617;51.988;5.854;2022-10-30T09:58:47;30.70;;;13.82;;
70228;SDS011;57617;51.988;5.854;2022-10-30T10:01:28;26.02;;;13.68;;
70228;SDS011;57617;51.988;5.854;2022-10-30T10:04:07;26.08;;;14.20;;
70228;SDS011;57617;51.988;5.854;2022-10-30T10:06:38;24.40;;;14.05;;
70228;SDS011;57617;51.988;5.854;2022-10-30T10:09:11;28.90;;;14.15;;
70228;SDS011;57617;51.988;5.854;2022-10-30T10:11:47;29.48;;;14.48;;
70228;SDS011;57617;51.988;5.854;2022-10-30T10:14:25;29.23;;;13.65;;
70228;SDS011;57617;51.988;5.854;2022-10-30T10:16:55;28.08;;;14.90;;
70228;SDS011;57617;51.988;5.854;2022-10-30T10:19:34;32.40;;;14.35;;
70228;SDS011;57617;51.988;5.854;2022-10-30T10:22:02;25.30;;;13.38;;
70228;SDS011;57617;51.988;5.854;2022-10-30T10:24:50;31.27;;;13.88;;
70228;SDS011;57617;51.988;5.854;2022-10-30T10:27:39;33.78;;;15.18;;
70228;SDS011;57617;51.988;5.854;2022-10-30T10:30:15;30.42;;;14.30;;
70228;SDS011;57617;51.988;5.854;2022-10-30T10:32:50;28.85;;;14.15;;
70228;SDS011;57617;51.988;5.854;2022-10-30T10:35:57;34.25;;;14.18;;
70228;SDS011;57617;51.988;5.854;2022-10-30T10:38:46;30.90;;;14.27;;
70228;SDS011;57617;51.988;5.854;2022-10-30T10:41:48;30.25;;;13.57;;
70228;SDS011;57617;51.988;5.854;2022-10-30T10:44:37;26.85;;;13.10;;
70228;SDS011;57617;51.988;5.854;2022-10-30T10:48:04;29.73;;;13.23;;
70228;SDS011;57617;51.988;5.854;2022-10-30T10:50:41;26.83;;;12.90;;
70228;SDS011;57617;51.988;5.854;2022-10-30T10:53:23;30.35;;;13.00;;
70228;SDS011;57617;51.988;5.854;2022-10-30T10:55:56;28.95;;;12.85;;
70228;SDS011;57617;51.988;5.854;2022-10-30T10:58:29;28.73;;;13.25;;
70228;SDS011;57617;51.988;5.854;2022-10-30T11:00:58;32.53;;;13.52;;
70228;SDS011;57617;51.988;5.854;2022-10-30T11:03:28;25.38;;;13.25;;
70228;SDS011;57617;51.988;5.854;2022-10-30T11:06:17;37.45;;;13.48;;
70228;SDS011;57617;51.988;5.854;2022-10-30T11:08:45;31.25;;;13.98;;
70228;SDS011;57617;51.988;5.854;2022-10-30T11:11:11;25.52;;;13.95;;
70228;SDS011;57617;51.988;5.854;2022-10-30T11:13:39;35.90;;;14.10;;
70228;SDS011;57617;51.988;5.854;2022-10-30T11:19:02;30.33;;;12.88;;
70228;SDS011;57617;51.988;5.854;2022-10-30T11:21:32;29.83;;;13.73;;
70228;SDS011;57617;51.988;5.854;2022-10-30T11:24:02;25.95;;;12.50;;
70228;SDS011;57617;51.988;5.854;2022-10-30T11:26:28;26.02;;;13.02;;
70228;SDS011;57617;51.988;5.854;2022-10-30T11:28:57;34.90;;;13.02;;
70228;SDS011;57617;51.988;5.854;2022-10-30T11:31:27;31.58;;;13.30;;
70228;SDS011;57617;51.988;5.854;2022-10-30T11:34:14;34.22;;;13.57;;
70228;SDS011;57617;51.988;5.854;2022-10-30T11:36:48;28.75;;;12.63;;
70228;SDS011;57617;51.988;5.854;2022-10-30T11:39:25;29.20;;;12.20;;
70228;SDS011;57617;51.988;5.854;2022-10-30T11:44:45;28.65;;;12.77;;
70228;SDS011;57617;51.988;5.854;2022-10-30T11:47:13;32.33;;;14.10;;
70228;SDS011;57617;51.988;5.854;2022-10-30T11:52:09;27.40;;;12.02;;
70228;SDS011;57617;51.988;5.854;2022-10-30T11:54:38;25.10;;;11.95;;
70228;SDS011;57617;51.988;5.854;2022-10-30T11:57:52;25.67;;;12.35;;
70228;SDS011;57617;51.988;5.854;2022-10-30T11:59:57;27.55;;;11.93;;
70228;SDS011;57617;51.988;5.854;2022-10-30T12:02:24;30.13;;;12.90;;
70228;SDS011;57617;51.988;5.854;2022-10-30T12:04:54;27.33;;;11.23;;
70228;SDS011;57617;51.988;5.854;2022-10-30T12:07:31;29.33;;;12.18;;
70228;SDS011;57617;51.988;5.854;2022-10-30T12:09:57;21.08;;;11.43;;
70228;SDS011;57617;51.988;5.854;2022-10-30T12:14:51;25.30;;;12.18;;
70228;SDS011;57617;51.988;5.854;2022-10-30T12:17:17;26.10;;;11.88;;
70228;SDS011;57617;51.988;5.854;2022-10-30T12:19:44;26.77;;;11.52;;
70228;SDS011;57617;51.988;5.854;2022-10-30T12:22:22;26.52;;;11.20;;
70228;SDS011;57617;51.988;5.854;2022-10-30T12:24:49;23.67;;;12.27;;
70228;SDS011;57617;51.988;5.854;2022-10-30T12:27:15;28.48;;;12.57;;
70228;SDS011;57617;51.988;5.854;2022-10-30T12:32:34;23.73;;;10.77;;
70228;SDS011;57617;51.988;5.854;2022-10-30T12:35:10;24.58;;;11.30;;
70228;SDS011;57617;51.988;5.854;2022-10-30T12:37:42;27.05;;;11.52;;
70228;SDS011;57617;51.988;5.854;2022-10-30T12:42:50;25.90;;;9.93;;
70228;SDS011;57617;51.988;5.854;2022-10-30T12:45:29;28.65;;;10.73;;
70228;SDS011;57617;51.988;5.854;2022-10-30T12:50:38;24.77;;;10.05;;
70228;SDS011;57617;51.988;5.854;2022-10-30T12:53:26;27.45;;;9.95;;
70228;SDS011;57617;51.988;5.854;2022-10-30T12:55:59;21.08;;;10.15;;
70228;SDS011;57617;51.988;5.854;2022-10-30T12:58:32;26.38;;;9.80;;
70228;SDS011;57617;51.988;5.854;2022-10-30T13:07:14;22.17;;;8.98;;
70228;SDS011;57617;51.988;5.854;2022-10-30T13:10:01;22.48;;;9.15;;
70228;SDS011;57617;51.988;5.854;2022-10-30T13:12:37;23.38;;;9.32;;
70228;SDS011;57617;51.988;5.854;2022-10-30T13:15:07;23.17;;;9.57;;
70228;SDS011;57617;51.988;5.854;2022-10-30T13:17:55;22.70;;;10.32;;
70228;SDS011;57617;51.988;5.854;2022-10-30T13:20:22;32.72;;;10.43;;
70228;SDS011;57617;51.988;5.854;2022-10-30T13:22:59;25.55;;;9.65;;
70228;SDS011;57617;51.988;5.854;2022-10-30T13:29:20;25.33;;;9.48;;
70228;SDS011;57617;51.988;5.854;2022-10-30T13:36:57;27.13;;;9.77;;
70228;SDS011;57617;51.988;5.854;2022-10-30T13:54:10;28.33;;;10.55;;
70228;SDS011;57617;51.988;5.854;2022-10-30T13:56:41;21.90;;;10.27;;
70228;SDS011;57617;51.988;5.854;2022-10-30T14:01:50;23.65;;;10.30;;
70228;SDS011;57617;51.988;5.854;2022-10-30T14:04:23;29.17;;;10.70;;
70228;SDS011;57617;51.988;5.854;2022-10-30T14:07:40;20.88;;;10.30;;
70228;SDS011;57617;51.988;5.854;2022-10-30T14:10:07;25.40;;;10.48;;
70228;SDS011;57617;51.988;5.854;2022-10-30T14:20:57;26.52;;;10.20;;
70228;SDS011;57617;51.988;5.854;2022-10-30T14:23:34;25.35;;;10.85;;
70228;SDS011;57617;51.988;5.854;2022-10-30T14:28:36;26.67;;;10.93;;
70228;SDS011;57617;51.988;5.854;2022-10-30T14:31:06;27.58;;;10.77;;
70228;SDS011;57617;51.988;5.854;2022-10-30T14:36:14;22.70;;;10.73;;
70228;SDS011;57617;51.988;5.854;2022-10-30T14:50:16;25.17;;;10.48;;
70228;SDS011;57617;51.988;5.854;2022-10-30T14:53:05;27.55;;;11.35;;
70228;SDS011;57617;51.988;5.854;2022-10-30T14:56:02;25.30;;;10.20;;
70228;SDS011;57617;51.988;5.854;2022-10-30T14:58:32;25.27;;;11.77;;
70228;SDS011;57617;51.988;5.854;2022-10-30T15:06:15;25.27;;;10.98;;
70228;SDS011;57617;51.988;5.854;2022-10-30T15:11:25;30.70;;;13.02;;
70228;SDS011;57617;51.988;5.854;2022-10-30T15:14:01;28.15;;;12.18;;
70228;SDS011;57617;51.988;5.854;2022-10-30T15:16:31;26.92;;;15.00;;
70228;SDS011;57617;51.988;5.854;2022-10-30T15:19:02;31.20;;;13.00;;
70228;SDS011;57617;51.988;5.854;2022-10-30T15:21:30;26.30;;;12.55;;
70228;SDS011;57617;51.988;5.854;2022-10-30T15:24:15;28.85;;;11.40;;
70228;SDS011;57617;51.988;5.854;2022-10-30T15:26:44;28.90;;;10.95;;
70228;SDS011;57617;51.988;5.854;2022-10-30T15:29:17;30.30;;;12.45;;
70228;SDS011;57617;51.988;5.854;2022-10-30T15:31:45;35.20;;;13.93;;
70228;SDS011;57617;51.988;5.854;2022-10-30T15:34:24;33.47;;;12.07;;
70228;SDS011;57617;51.988;5.854;2022-10-30T15:36:50;34.97;;;12.23;;
70228;SDS011;57617;51.988;5.854;2022-10-30T15:39:16;27.42;;;11.90;;
70228;SDS011;57617;51.988;5.854;2022-10-30T15:41:46;27.60;;;12.27;;
70228;SDS011;57617;51.988;5.854;2022-10-30T15:44:15;34.67;;;11.68;;
70228;SDS011;57617;51.988;5.854;2022-10-30T15:46:51;30.67;;;11.85;;
70228;SDS011;57617;51.988;5.854;2022-10-30T15:49:20;28.38;;;12.07;;
70228;SDS011;57617;51.988;5.854;2022-10-30T15:52:02;31.42;;;10.95;;
70228;SDS011;57617;51.988;5.854;2022-10-30T15:54:37;25.23;;;11.65;;
70228;SDS011;57617;51.988;5.854;2022-10-30T15:57:05;28.40;;;11.27;;
70228;SDS011;57617;51.988;5.854;2022-10-30T15:59:30;31.10;;;11.75;;
70228;SDS011;57617;51.988;5.854;2022-10-30T16:01:59;29.38;;;10.93;;
70228;SDS011;57617;51.988;5.854;2022-10-30T16:04:25;26.33;;;12.38;;
70228;SDS011;57617;51.988;5.854;2022-10-30T16:06:57;23.65;;;11.52;;
70228;SDS011;57617;51.988;5.854;2022-10-30T16:09:24;27.48;;;11.75;;
70228;SDS011;57617;51.988;5.854;2022-10-30T16:11:53;30.80;;;13.15;;
70228;SDS011;57617;51.988;5.854;2022-10-30T16:14:27;30.77;;;13.48;;
70228;SDS011;57617;51.988;5.854;2022-10-30T16:16:59;33.47;;;15.05;;
70228;SDS011;57617;51.988;5.854;2022-10-30T16:19:29;27.73;;;12.93;;
70228;SDS011;57617;51.988;5.854;2022-10-30T16:22:08;32.00;;;14.38;;
70228;SDS011;57617;51.988;5.854;2022-10-30T16:24:40;39.95;;;16.90;;
70228;SDS011;57617;51.988;5.854;2022-10-30T16:27:12;38.50;;;18.80;;
70228;SDS011;57617;51.988;5.854;2022-10-30T16:29:40;39.05;;;19.65;;
70228;SDS011;57617;51.988;5.854;2022-10-30T16:32:10;38.88;;;19.42;;